createdAt,value
2022-11-10T00:02:06.008Z,71.46
2022-11-10T00:06:11.441Z,71.69
2022-11-10T00:10:16.018Z,71.55
2022-11-10T00:14:36.655Z,71.43
2022-11-10T00:18:40.363Z,71.68
2022-11-10T00:22:45.308Z,71.90
2022-11-10T00:26:48.746Z,71.67
2022-11-10T00:30:52.708Z,71.43
2022-11-10T00:34:56.073Z,71.83
2022-11-10T00:39:00.707Z,71.87
2022-11-10T00:43:04.129Z,71.87
2022-11-10T00:47:21.923Z,71.95
2022-11-10T00:51:26.854Z,72.15
2022-11-10T00:55:32.012Z,72.05
2022-11-10T00:59:35.057Z,72.23
2022-11-10T01:03:39.178Z,71.94
2022-11-10T01:07:42.628Z,72.26
2022-11-10T01:11:47.112Z,72.63
2022-11-10T01:15:50.685Z,72.24
2022-11-10T01:19:54.231Z,72.42
2022-11-10T01:23:57.818Z,72.69
2022-11-10T01:28:02.993Z,72.67
2022-11-10T01:32:06.762Z,72.65
2022-11-10T01:36:11.947Z,72.71
2022-11-10T01:40:16.157Z,72.62
2022-11-10T01:44:23.175Z,72.49
2022-11-10T01:48:33.075Z,72.63
2022-11-10T01:52:37.723Z,72.17
2022-11-10T01:56:45.172Z,72.35
2022-11-10T02:00:49.718Z,71.98
2022-11-10T02:04:54.579Z,71.97
2022-11-10T02:09:00.163Z,72.00
2022-11-10T02:13:03.345Z,72.38
2022-11-10T02:17:08.305Z,72.14
2022-11-10T02:21:13.174Z,71.93
2022-11-10T02:25:20.807Z,71.95
2022-11-10T02:29:25.471Z,71.79
2022-11-10T02:33:29.022Z,71.93
2022-11-10T02:37:33.688Z,71.56
2022-11-10T02:41:37.196Z,72.08
2022-11-10T02:45:42.347Z,71.71
2022-11-10T02:49:46.375Z,71.83
2022-11-10T02:53:51.750Z,71.76
2022-11-10T02:57:55.154Z,71.97
2022-11-10T03:01:58.155Z,72.20
2022-11-10T03:06:02.172Z,72.01
2022-11-10T03:10:08.200Z,72.14
2022-11-10T03:14:11.906Z,71.55
2022-11-10T03:18:15.522Z,71.72
2022-11-10T03:22:18.843Z,71.93
2022-11-10T03:26:24.060Z,72.02
2022-11-10T03:30:28.062Z,72.16
2022-11-10T03:34:32.037Z,72.47
2022-11-10T03:38:35.676Z,72.19
2022-11-10T03:42:43.626Z,72.49
2022-11-10T03:46:51.279Z,72.29
2022-11-10T03:50:55.150Z,71.93
2022-11-10T03:55:03.138Z,72.25
2022-11-10T03:59:07.956Z,72.25
2022-11-10T04:03:11.482Z,72.34
2022-11-10T04:07:33.166Z,72.45
2022-11-10T04:11:53.631Z,72.47
2022-11-10T04:15:58.563Z,72.19
2022-11-10T04:20:04.164Z,72.35
2022-11-10T04:24:07.927Z,72.36
2022-11-10T04:28:11.382Z,72.23
2022-11-10T04:32:16.385Z,71.93
2022-11-10T04:36:21.386Z,72.15
2022-11-10T04:40:24.874Z,72.39
2022-11-10T04:44:28.005Z,72.53
2022-11-10T04:48:33.851Z,72.53
2022-11-10T04:52:37.311Z,72.38
2022-11-10T04:56:40.931Z,72.76
2022-11-10T05:00:44.889Z,72.74
2022-11-10T05:04:49.763Z,72.56
2022-11-10T05:08:53.231Z,72.56
2022-11-10T05:12:59.109Z,72.83
2022-11-10T05:17:02.523Z,72.50
2022-11-10T05:21:07.403Z,72.79
2022-11-10T05:25:10.994Z,73.07
2022-11-10T05:29:14.402Z,73.12
2022-11-10T05:33:17.927Z,73.02
2022-11-10T05:37:22.458Z,72.95
2022-11-10T05:41:26.037Z,72.96
2022-11-10T05:45:30.354Z,72.75
2022-11-10T05:49:33.941Z,72.73
2022-11-10T05:53:38.790Z,72.81
2022-11-10T05:57:44.248Z,72.65
2022-11-10T06:01:47.660Z,72.75
2022-11-10T06:05:52.673Z,72.85
2022-11-10T06:09:57.035Z,72.91
2022-11-10T06:14:01.566Z,72.94
2022-11-10T06:22:08.023Z,72.92
2022-11-10T06:26:13.446Z,72.86
2022-11-10T06:30:17.354Z,73.01
2022-11-10T06:34:22.567Z,73.24
2022-11-10T06:38:26.149Z,73.15
2022-11-10T06:42:30.528Z,73.36
2022-11-10T06:46:38.177Z,73.72
2022-11-10T06:50:44.832Z,73.76
2022-11-10T06:54:47.831Z,73.82
2022-11-10T06:58:52.711Z,73.81
2022-11-10T07:03:03.701Z,73.80
2022-11-10T07:07:06.843Z,73.70
2022-11-10T07:11:10.342Z,73.68
2022-11-10T07:15:16.398Z,73.53
2022-11-10T07:19:19.574Z,73.71
2022-11-10T07:23:23.605Z,74.01
2022-11-10T07:27:27.382Z,73.88
2022-11-10T07:31:31.748Z,73.85
2022-11-10T07:35:36.382Z,73.86
2022-11-10T07:39:39.678Z,73.89
2022-11-10T07:43:43.129Z,73.82
2022-11-10T07:47:47.984Z,73.57
2022-11-10T07:51:51.033Z,73.18
2022-11-10T07:55:55.356Z,72.82
2022-11-10T07:59:58.560Z,72.80
2022-11-10T08:04:03.087Z,72.43
2022-11-10T08:08:07.278Z,71.91
2022-11-10T08:12:10.840Z,71.45
2022-11-10T08:16:14.303Z,71.63
2022-11-10T08:20:19.628Z,71.82
2022-11-10T08:24:23.046Z,71.28
2022-11-10T08:28:26.819Z,71.59
2022-11-10T08:32:30.375Z,71.49
2022-11-10T08:36:34.918Z,71.54
2022-11-10T08:40:39.044Z,71.47
2022-11-10T08:44:42.500Z,71.58
2022-11-10T08:48:46.136Z,71.86
2022-11-10T08:52:50.950Z,72.32
2022-11-10T08:56:53.932Z,72.33
2022-11-10T09:00:58.217Z,72.11
2022-11-10T09:05:01.710Z,72.16
2022-11-10T09:09:07.386Z,72.55
2022-11-10T09:13:12.083Z,72.48
2022-11-10T09:17:15.588Z,72.46
2022-11-10T09:21:19.117Z,72.69
2022-11-10T09:25:24.118Z,72.12
2022-11-10T09:29:27.340Z,72.16
2022-11-10T09:33:31.021Z,72.31
2022-11-10T09:37:34.152Z,72.79
2022-11-10T09:41:42.209Z,72.75
2022-11-10T09:45:48.747Z,72.86
2022-11-10T09:49:55.690Z,73.13
2022-11-10T09:54:02.727Z,73.07
2022-11-10T09:58:07.658Z,73.32
2022-11-10T10:02:22.709Z,73.09
2022-11-10T10:06:30.584Z,73.54
2022-11-10T10:10:46.234Z,73.45
2022-11-10T10:15:11.985Z,73.64
2022-11-10T10:19:27.904Z,72.82
2022-11-10T10:24:07.052Z,72.45
2022-11-10T10:28:06.887Z,72.30
2022-11-10T10:32:15.258Z,72.45
2022-11-10T10:36:21.303Z,71.55
2022-11-10T10:40:25.842Z,71.70
2022-11-10T10:44:29.017Z,71.85
2022-11-10T10:48:33.659Z,71.55
2022-11-10T10:52:36.945Z,71.56
2022-11-10T10:56:40.573Z,72.20
2022-11-10T11:00:45.107Z,72.54
2022-11-10T11:04:49.989Z,72.35
2022-11-10T11:09:00.292Z,72.20
2022-11-10T11:13:16.200Z,71.46
2022-11-10T11:17:21.578Z,70.55
2022-11-10T11:21:35.719Z,70.16
2022-11-10T11:25:43.687Z,70.94
2022-11-10T11:30:04.209Z,70.57
2022-11-10T11:34:14.234Z,69.62
2022-11-10T11:38:30.875Z,69.40
2022-11-10T11:42:47.351Z,69.14
2022-11-10T11:47:01.903Z,68.69
2022-11-10T11:51:14.350Z,68.50
2022-11-10T11:55:33.086Z,68.55
2022-11-10T12:00:01.065Z,68.44
2022-11-10T12:04:23.069Z,68.07
2022-11-10T12:08:39.958Z,68.43
2022-11-10T12:13:06.892Z,69.57
2022-11-10T12:17:18.243Z,68.22
2022-11-10T12:21:26.661Z,69.21
2022-11-10T12:25:36.053Z,69.74
2022-11-10T12:29:45.784Z,67.69
2022-11-10T12:33:53.683Z,67.06
2022-11-10T12:38:03.324Z,66.11
2022-11-10T12:42:14.537Z,66.75
2022-11-10T12:46:19.523Z,66.74
2022-11-10T12:50:34.292Z,67.29
2022-11-10T12:54:37.772Z,66.63
2022-11-10T12:58:41.356Z,67.54
2022-11-10T13:02:48.033Z,68.16
2022-11-10T13:06:54.323Z,67.60
2022-11-10T13:11:02.076Z,67.78
2022-11-10T13:15:44.352Z,69.11
2022-11-10T13:19:53.966Z,68.32
2022-11-10T13:24:21.666Z,68.01
2022-11-10T13:28:57.488Z,67.94
2022-11-10T13:33:31.570Z,69.10
2022-11-10T13:37:58.745Z,69.96
2022-11-10T13:42:05.068Z,68.22
2022-11-10T13:46:08.645Z,68.36
2022-11-10T13:50:28.532Z,68.08
2022-11-10T13:55:02.082Z,68.60
2022-11-10T13:59:18.628Z,67.60
2022-11-10T14:03:54.866Z,67.37
2022-11-10T14:08:05.603Z,66.41
2022-11-10T14:12:29.989Z,67.17
2022-11-10T14:16:40.146Z,66.19
2022-11-10T14:20:45.771Z,65.52
2022-11-10T14:24:56.079Z,65.93
2022-11-10T14:29:21.885Z,66.47
2022-11-10T14:33:26.713Z,63.48
2022-11-10T14:37:31.692Z,64.55
2022-11-10T14:41:35.004Z,62.95
2022-11-10T14:45:41.805Z,63.50
2022-11-10T14:49:45.744Z,63.92
2022-11-10T14:53:50.847Z,64.86
2022-11-10T14:58:06.158Z,64.40
2022-11-10T15:02:16.774Z,65.08
2022-11-10T15:06:21.126Z,65.51
2022-11-10T15:10:26.944Z,65.71
2022-11-10T15:14:40.079Z,65.86
2022-11-10T15:18:45.695Z,65.34
2022-11-10T15:22:51.265Z,66.62
2022-11-10T15:26:54.781Z,67.03
2022-11-10T15:31:00.380Z,67.64
2022-11-10T15:35:25.794Z,68.53
2022-11-10T15:39:30.775Z,68.83
2022-11-10T15:43:33.881Z,69.13
2022-11-10T15:47:37.693Z,69.75
2022-11-10T15:51:43.607Z,70.25
2022-11-10T15:55:46.703Z,71.07
2022-11-10T15:59:50.476Z,71.40
2022-11-10T16:03:57.573Z,71.80
2022-11-10T16:08:02.098Z,71.73
2022-11-10T16:12:06.127Z,72.27
2022-11-10T16:16:13.567Z,72.29
2022-11-10T16:20:17.548Z,72.56
2022-11-10T16:24:22.792Z,72.72
2022-11-10T16:28:28.617Z,73.00
2022-11-10T16:32:31.682Z,73.08
2022-11-10T16:36:36.206Z,72.98
2022-11-10T16:40:41.037Z,73.26
2022-11-10T16:44:44.025Z,74.58
2022-11-10T16:48:49.002Z,75.11
2022-11-10T16:52:52.583Z,74.82
2022-11-10T16:56:56.942Z,75.13
2022-11-10T17:01:02.745Z,75.05
2022-11-10T17:05:06.851Z,75.30
2022-11-10T17:09:15.488Z,75.31
2022-11-10T17:13:20.625Z,76.49
2022-11-10T17:17:24.411Z,76.15
2022-11-10T17:21:32.918Z,75.96
2022-11-10T17:25:38.203Z,75.59
2022-11-10T17:29:42.748Z,75.51
2022-11-10T17:33:46.059Z,75.56
2022-11-10T17:37:52.842Z,76.76
2022-11-10T17:41:55.986Z,76.65
2022-11-10T17:46:00.960Z,76.46
2022-11-10T17:50:04.573Z,76.70
2022-11-10T17:54:13.687Z,76.96
2022-11-10T17:58:18.124Z,76.55
2022-11-10T18:02:22.548Z,76.00
2022-11-10T18:06:26.069Z,75.71
2022-11-10T18:10:29.056Z,74.67
2022-11-10T18:14:34.708Z,74.42
2022-11-10T18:18:39.247Z,74.44
2022-11-10T18:22:43.079Z,74.76
2022-11-10T18:26:46.705Z,75.58
2022-11-10T18:30:49.776Z,76.06
2022-11-10T18:34:54.931Z,75.58
2022-11-10T18:38:57.970Z,75.30
2022-11-10T18:43:07.157Z,75.49
2022-11-10T18:47:14.249Z,75.62
2022-11-10T18:51:19.545Z,75.43
2022-11-10T18:55:22.681Z,75.67
2022-11-10T18:59:26.224Z,75.66
2022-11-10T19:03:29.224Z,75.26
2022-11-10T19:07:34.060Z,74.66
2022-11-10T19:11:37.163Z,74.68
2022-11-10T19:15:42.010Z,75.16
2022-11-10T19:19:45.081Z,75.96
2022-11-10T19:23:50.620Z,75.84
2022-11-10T19:27:53.993Z,76.01
2022-11-10T19:31:58.023Z,75.75
2022-11-10T19:36:04.942Z,75.90
2022-11-10T19:40:11.945Z,76.11
2022-11-10T19:44:15.050Z,76.07
2022-11-10T19:48:18.616Z,75.98
2022-11-10T19:52:23.330Z,76.16
2022-11-10T19:56:31.683Z,76.48
2022-11-10T20:00:35.720Z,76.38
2022-11-10T20:05:00.121Z,76.29
2022-11-10T20:09:03.493Z,76.15
2022-11-10T20:13:08.910Z,76.09
2022-11-10T20:17:11.879Z,75.88
2022-11-10T20:21:17.350Z,75.16
2022-11-10T20:25:20.633Z,75.03
2022-11-10T20:29:26.021Z,75.43
2022-11-10T20:33:29.650Z,75.83
2022-11-10T20:37:34.504Z,75.94
2022-11-10T20:41:38.481Z,76.47
2022-11-10T20:45:44.184Z,76.24
2022-11-10T20:49:47.886Z,76.04
2022-11-10T20:53:51.085Z,75.82
2022-11-10T20:57:55.282Z,76.21
2022-11-10T21:02:00.406Z,75.83
2022-11-10T21:06:04.834Z,75.88
2022-11-10T21:10:08.869Z,75.33
2022-11-10T21:14:12.491Z,75.61
2022-11-10T21:18:17.152Z,75.54
2022-11-10T21:22:20.963Z,75.62
2022-11-10T21:26:28.672Z,76.31
2022-11-10T21:30:32.320Z,76.37
2022-11-10T21:34:37.071Z,76.34
2022-11-10T21:38:40.506Z,77.05
2022-11-10T21:42:43.436Z,76.75
2022-11-10T21:46:47.331Z,77.22
2022-11-10T21:50:52.063Z,76.93
2022-11-10T21:54:55.978Z,77.22
2022-11-10T21:58:59.182Z,77.33
2022-11-10T22:03:04.259Z,77.00
2022-11-10T22:07:24.651Z,77.16
2022-11-10T22:11:45.274Z,77.50
2022-11-10T22:16:05.967Z,77.23
2022-11-10T22:20:10.028Z,76.81
2022-11-10T22:24:27.982Z,76.65
2022-11-10T22:28:31.734Z,76.26
2022-11-10T22:32:34.836Z,76.15
2022-11-10T22:36:38.424Z,76.24
2022-11-10T22:41:00.507Z,76.01
2022-11-10T22:45:04.236Z,76.48
2022-11-10T22:49:09.328Z,76.58
2022-11-10T22:53:12.878Z,76.55
2022-11-10T22:57:17.207Z,76.94
2022-11-10T23:01:20.831Z,76.55
2022-11-10T23:05:23.929Z,76.52
2022-11-10T23:09:27.384Z,76.35
2022-11-10T23:13:32.453Z,76.42
2022-11-10T23:17:35.450Z,77.14
2022-11-10T23:21:38.874Z,76.82
2022-11-10T23:25:42.312Z,77.22
2022-11-10T23:29:46.713Z,77.18
2022-11-10T23:33:52.444Z,76.96
2022-11-10T23:37:55.428Z,76.36
2022-11-10T23:41:58.861Z,75.92
2022-11-10T23:46:07.707Z,75.79
2022-11-10T23:50:12.022Z,75.95
2022-11-10T23:54:15.093Z,76.07
2022-11-10T23:58:18.421Z,76.62
